Time;durP1;ratioP1;P1;durP2;ratioP2;P2;SDS_P1;SDS_P2;PMS_P1;PMS_P2;Temp;Humidity;BMP_temperature;BMP_pressure;BME280_temperature;BME280_humidity;BME280_pressure;Samples;Min_cycle;Max_cycle;Signal;HPM_P1;HPM_P2
2022/01/01 00:02:15;;;;;;;61.42;19.35;;;9.90;94.70;;;;;;5115552;27;20047;-68
2022/01/01 00:04:42;;;;;;;62.80;18.05;;;9.90;94.60;;;;;;5112335;27;20054;-68
2022/01/01 00:07:09;;;;;;;59.50;20.85;;;9.90;94.60;;;;;;5112529;27;20092;-68
2022/01/01 00:09:35;;;;;;;64.97;20.25;;;9.90;94.60;;;;;;5129647;27;20126;-68
2022/01/01 00:12:00;;;;;;;74.85;22.10;;;9.90;94.60;;;;;;5130913;27;20125;-68
2022/01/01 00:14:26;;;;;;;50.15;18.90;;;9.90;94.70;;;;;;5111890;27;20395;-68
2022/01/01 00:16:51;;;;;;;65.80;20.17;;;9.90;94.80;;;;;;5122201;27;20044;-69
2022/01/01 00:19:17;;;;;;;61.05;19.95;;;9.90;94.70;;;;;;5127509;27;20059;-68
2022/01/01 00:21:43;;;;;;;74.88;22.58;;;9.90;94.60;;;;;;5130986;27;20561;-68
2022/01/01 00:24:10;;;;;;;62.35;21.88;;;9.90;94.60;;;;;;5130873;27;20047;-69
2022/01/01 00:26:35;;;;;;;69.72;23.60;;;9.90;94.60;;;;;;5112359;27;20100;-69
2022/01/01 00:29:01;;;;;;;62.30;21.58;;;10.00;94.50;;;;;;5129953;27;20035;-68
2022/01/01 00:31:28;;;;;;;63.50;20.10;;;9.90;94.50;;;;;;5130919;27;20038;-68
2022/01/01 00:33:54;;;;;;;67.15;19.35;;;9.90;94.60;;;;;;5129876;27;20043;-69
2022/01/01 00:36:20;;;;;;;56.40;18.38;;;9.90;94.40;;;;;;5130879;27;20047;-68
2022/01/01 00:38:46;;;;;;;65.68;19.92;;;9.90;94.40;;;;;;5111359;27;20039;-68
2022/01/01 00:41:11;;;;;;;55.35;15.02;;;9.90;94.50;;;;;;5130666;27;20039;-68
2022/01/01 00:43:37;;;;;;;77.13;19.80;;;9.80;94.40;;;;;;5125767;27;20071;-68
2022/01/01 00:46:03;;;;;;;51.38;18.33;;;9.80;94.40;;;;;;5109981;28;20436;-68
2022/01/01 00:48:28;;;;;;;66.75;20.70;;;9.80;94.40;;;;;;5122975;27;20100;-68
2022/01/01 00:50:55;;;;;;;54.00;18.15;;;9.80;94.30;;;;;;5129683;27;20488;-69
2022/01/01 00:53:21;;;;;;;61.00;17.67;;;9.70;94.30;;;;;;5130022;27;20081;-68
2022/01/01 00:55:46;;;;;;;53.60;14.82;;;9.70;94.20;;;;;;5130457;27;20067;-69
2022/01/01 00:58:12;;;;;;;55.40;14.95;;;9.70;94.30;;;;;;5130157;27;20038;-68
2022/01/01 01:00:37;;;;;;;57.10;15.25;;;9.60;94.20;;;;;;5112252;27;20047;-68
2022/01/01 01:03:15;;;;;;;58.00;14.20;;;9.60;94.10;;;;;;5110827;28;20046;-69
2022/01/01 01:05:43;;;;;;;54.67;14.77;;;9.60;94.30;;;;;;5129934;27;20100;-68
2022/01/01 01:08:10;;;;;;;53.55;15.85;;;9.60;94.30;;;;;;5129350;27;20487;-68
2022/01/01 01:10:37;;;;;;;54.03;17.58;;;9.60;94.20;;;;;;5129985;27;20035;-69
2022/01/01 01:13:04;;;;;;;61.72;19.17;;;9.60;94.20;;;;;;5094658;28;20456;-68
2022/01/01 01:15:32;;;;;;;70.88;19.38;;;9.50;94.20;;;;;;5130240;28;20050;-68
2022/01/01 01:17:58;;;;;;;66.13;19.88;;;9.50;94.30;;;;;;5130110;28;20043;-68
2022/01/01 01:20:26;;;;;;;65.30;21.75;;;9.50;94.20;;;;;;5130008;28;20043;-68
2022/01/01 01:22:52;;;;;;;68.20;21.90;;;9.50;94.20;;;;;;5129011;27;20092;-68
2022/01/01 01:25:19;;;;;;;62.30;21.63;;;9.50;94.20;;;;;;5129430;27;20054;-68
2022/01/01 01:27:45;;;;;;;65.20;23.33;;;9.50;94.20;;;;;;5130078;28;20043;-68
2022/01/01 01:30:14;;;;;;;59.20;23.80;;;9.50;94.20;;;;;;5111024;28;20043;-68
2022/01/01 01:32:40;;;;;;;67.25;25.55;;;9.50;94.20;;;;;;5130229;28;20122;-68
2022/01/01 01:35:06;;;;;;;70.03;28.48;;;9.40;94.20;;;;;;5111635;28;20142;-68
2022/01/01 01:37:32;;;;;;;74.45;30.58;;;9.50;94.30;;;;;;5129393;27;20039;-68
2022/01/01 01:39:58;;;;;;;90.15;31.38;;;9.50;94.20;;;;;;5128977;28;20035;-68
2022/01/01 01:42:26;;;;;;;74.10;34.85;;;9.50;94.20;;;;;;5110219;28;20046;-68
2022/01/01 01:44:53;;;;;;;85.47;36.50;;;9.50;94.20;;;;;;5128159;27;20051;-69
2022/01/01 01:47:29;;;;;;;82.68;39.08;;;9.40;94.10;;;;;;5133758;27;20074;-68
2022/01/01 01:49:56;;;;;;;79.35;39.15;;;9.30;94.20;;;;;;5133723;27;20166;-68
2022/01/01 01:52:22;;;;;;;85.95;40.50;;;9.40;94.20;;;;;;5134142;27;20068;-68
2022/01/01 01:54:48;;;;;;;100.13;42.15;;;9.40;94.10;;;;;;5133599;27;20043;-68
2022/01/01 01:57:14;;;;;;;93.53;41.03;;;9.30;94.10;;;;;;5133122;27;20411;-68
2022/01/01 01:59:43;;;;;;;91.13;38.70;;;9.30;94.20;;;;;;5133427;27;20043;-68
2022/01/01 02:02:09;;;;;;;88.78;39.63;;;9.30;94.30;;;;;;5133739;27;20077;-68
2022/01/01 02:04:34;;;;;;;106.32;39.67;;;9.30;94.20;;;;;;5098049;27;20047;-68
2022/01/01 02:07:02;;;;;;;84.93;41.13;;;9.30;94.20;;;;;;5133007;27;20032;-68
2022/01/01 02:09:27;;;;;;;75.72;37.05;;;9.30;94.20;;;;;;5097581;27;20044;-68
2022/01/01 02:11:53;;;;;;;82.38;35.17;;;9.20;94.20;;;;;;5133689;27;20520;-69
2022/01/01 02:19:23;;;;;;;92.72;30.25;;;9.20;94.20;;;;;;5132876;27;20551;-69
2022/01/01 02:21:49;;;;;;;74.87;29.70;;;9.20;94.40;;;;;;5132975;27;20046;-69
2022/01/01 02:24:15;;;;;;;78.75;28.83;;;9.20;94.40;;;;;;5129579;27;20284;-69
2022/01/01 02:26:41;;;;;;;72.32;27.50;;;9.20;94.50;;;;;;5133167;27;20047;-69
2022/01/01 02:29:06;;;;;;;82.22;26.52;;;9.20;94.50;;;;;;5133276;27;20441;-69
2022/01/01 02:31:33;;;;;;;82.60;25.20;;;9.20;94.50;;;;;;5132617;27;20074;-69
2022/01/01 02:34:07;;;;;;;80.03;25.30;;;9.20;94.40;;;;;;5114478;27;20406;-69
2022/01/01 02:36:43;;;;;;;77.13;24.38;;;9.20;94.50;;;;;;5132883;27;20043;-69
2022/01/01 02:39:21;;;;;;;74.28;22.30;;;9.10;94.50;;;;;;5117832;27;20138;-68
2022/01/01 02:41:50;;;;;;;75.93;25.77;;;9.20;94.60;;;;;;5104265;27;20137;-68
2022/01/01 02:44:16;;;;;;;78.10;24.58;;;9.10;94.60;;;;;;5112430;27;20373;-69
2022/01/01 02:46:41;;;;;;;79.75;24.27;;;9.20;94.50;;;;;;5111417;27;20062;-69
2022/01/01 02:49:07;;;;;;;76.70;26.05;;;9.10;94.50;;;;;;5132199;27;20035;-69
2022/01/01 02:51:33;;;;;;;88.68;25.70;;;9.20;94.40;;;;;;5127843;27;20538;-68
2022/01/01 02:53:59;;;;;;;77.93;27.52;;;9.10;94.50;;;;;;5112428;28;20071;-68
2022/01/01 02:56:26;;;;;;;93.45;28.70;;;9.10;94.40;;;;;;5120375;27;20035;-68
2022/01/01 02:58:52;;;;;;;91.03;28.48;;;9.10;94.40;;;;;;5132821;27;20092;-68
2022/01/01 03:01:18;;;;;;;69.90;26.98;;;9.10;94.40;;;;;;5131956;27;20440;-68
2022/01/01 03:03:45;;;;;;;67.47;25.83;;;9.10;94.50;;;;;;5132566;27;20583;-68
2022/01/01 03:06:10;;;;;;;79.55;29.27;;;9.10;94.50;;;;;;5132564;27;20105;-69
2022/01/01 03:08:37;;;;;;;84.88;25.90;;;9.10;94.50;;;;;;5126187;27;20578;-68
2022/01/01 03:11:02;;;;;;;88.85;30.27;;;9.20;94.50;;;;;;5125986;27;20035;-69
2022/01/01 03:13:29;;;;;;;93.25;32.88;;;9.20;94.50;;;;;;5111545;28;20127;-69
2022/01/01 03:15:55;;;;;;;88.68;29.92;;;9.20;94.40;;;;;;5112047;28;20043;-68
2022/01/01 03:18:21;;;;;;;83.88;30.98;;;9.10;94.40;;;;;;5076841;28;20040;-69
2022/01/01 03:20:46;;;;;;;84.72;27.45;;;9.20;94.40;;;;;;5095762;27;20051;-68
2022/01/01 03:23:12;;;;;;;76.07;26.10;;;9.20;94.50;;;;;;5096968;27;20104;-69
2022/01/01 03:25:38;;;;;;;76.30;25.27;;;9.20;94.60;;;;;;5131491;27;20077;-68
2022/01/01 03:28:04;;;;;;;67.63;27.38;;;9.30;94.60;;;;;;5112827;27;20043;-68
2022/01/01 03:30:30;;;;;;;74.25;25.75;;;9.30;94.60;;;;;;5111617;28;20597;-68
2022/01/01 03:32:55;;;;;;;79.30;27.30;;;9.20;94.70;;;;;;5126311;27;20487;-68
2022/01/01 03:35:21;;;;;;;83.60;26.80;;;9.20;94.80;;;;;;5131656;27;20051;-69
2022/01/01 03:37:47;;;;;;;74.68;26.88;;;9.30;94.90;;;;;;5113361;27;20483;-68
2022/01/01 03:40:12;;;;;;;82.75;29.85;;;9.30;94.80;;;;;;5113545;27;20117;-68
2022/01/01 03:42:38;;;;;;;81.85;26.95;;;9.30;94.90;;;;;;5130515;27;20035;-69
2022/01/01 03:45:06;;;;;;;88.88;29.67;;;9.30;94.90;;;;;;5096438;27;20047;-69
2022/01/01 03:47:32;;;;;;;86.03;30.25;;;9.30;94.90;;;;;;5131710;27;20423;-68
2022/01/01 03:49:57;;;;;;;93.18;27.75;;;9.30;95.10;;;;;;5131439;27;20039;-68
2022/01/01 03:52:23;;;;;;;101.25;30.45;;;9.30;95.00;;;;;;5131414;27;20039;-68
2022/01/01 03:54:49;;;;;;;78.40;26.85;;;9.30;95.10;;;;;;5130994;27;20072;-68
2022/01/01 03:57:14;;;;;;;71.63;25.88;;;9.40;95.00;;;;;;5112911;27;20411;-69
2022/01/01 03:59:40;;;;;;;71.93;25.60;;;9.40;95.00;;;;;;5131340;27;20039;-68
2022/01/01 04:02:05;;;;;;;63.67;27.77;;;9.40;95.00;;;;;;5112697;27;20418;-69
2022/01/01 04:04:31;;;;;;;71.70;28.17;;;9.50;94.90;;;;;;5131206;27;20046;-68
2022/01/01 04:06:57;;;;;;;84.30;33.47;;;9.50;95.00;;;;;;5126507;27;20036;-69
2022/01/01 04:09:23;;;;;;;75.28;35.90;;;9.50;94.90;;;;;;5126504;27;20043;-68
2022/01/01 04:11:51;;;;;;;96.40;38.10;;;9.50;94.90;;;;;;5110761;28;20048;-68
2022/01/01 04:14:17;;;;;;;93.68;40.92;;;9.50;94.80;;;;;;5130228;27;20134;-69
2022/01/01 04:16:43;;;;;;;93.45;43.78;;;9.40;94.70;;;;;;5113014;27;20134;-68
2022/01/01 04:19:08;;;;;;;94.40;44.10;;;9.40;94.70;;;;;;5131085;27;20142;-68
2022/01/01 04:21:34;;;;;;;93.80;45.28;;;9.40;94.70;;;;;;5131101;27;20465;-68
2022/01/01 04:24:02;;;;;;;93.13;46.90;;;9.30;94.50;;;;;;5130526;27;20473;-68
2022/01/01 04:26:28;;;;;;;90.75;47.20;;;9.30;94.60;;;;;;5130668;27;20054;-68
2022/01/01 04:28:53;;;;;;;103.03;50.65;;;9.30;94.60;;;;;;5129948;27;20039;-69
2022/01/01 04:31:19;;;;;;;109.43;53.25;;;9.30;94.50;;;;;;5130967;27;20442;-68
2022/01/01 04:33:44;;;;;;;108.30;58.63;;;9.30;94.50;;;;;;5130468;27;20031;-68
2022/01/01 04:36:10;;;;;;;117.03;62.55;;;9.30;94.50;;;;;;5130774;27;20036;-68
2022/01/01 04:38:44;;;;;;;114.75;59.95;;;9.30;94.50;;;;;;5130473;27;20118;-68
2022/01/01 04:41:12;;;;;;;116.07;60.88;;;9.40;94.50;;;;;;5130087;27;20051;-68
2022/01/01 04:43:42;;;;;;;122.05;60.90;;;9.40;94.60;;;;;;5130387;27;20109;-69
2022/01/01 04:46:10;;;;;;;124.45;58.25;;;9.40;94.40;;;;;;5129581;27;20057;-68
2022/01/01 04:48:37;;;;;;;107.95;54.67;;;9.40;94.50;;;;;;5128861;27;20046;-68
2022/01/01 04:51:07;;;;;;;103.68;48.63;;;9.40;94.70;;;;;;5130042;27;20047;-68
2022/01/01 04:53:43;;;;;;;101.72;45.10;;;9.40;94.90;;;;;;5124094;27;20047;-67
2022/01/01 04:56:08;;;;;;;114.47;42.10;;;9.50;95.00;;;;;;5102141;28;20044;-69
2022/01/01 04:58:35;;;;;;;102.25;39.08;;;9.50;94.90;;;;;;5114992;27;20070;-69
2022/01/01 05:01:01;;;;;;;94.20;33.30;;;9.60;95.00;;;;;;5129167;27;20084;-69
2022/01/01 05:03:27;;;;;;;96.70;31.35;;;9.60;95.30;;;;;;5110808;27;20047;-69
2022/01/01 05:05:53;;;;;;;84.45;25.45;;;9.60;95.50;;;;;;5129860;27;20043;-69
2022/01/01 05:08:18;;;;;;;99.97;25.00;;;9.70;95.40;;;;;;5129597;27;20031;-68
2022/01/01 05:10:44;;;;;;;90.45;23.35;;;9.80;95.50;;;;;;5130136;27;20046;-68
2022/01/01 05:13:09;;;;;;;99.07;22.58;;;9.90;95.60;;;;;;5128944;27;20047;-68
2022/01/01 05:15:36;;;;;;;70.50;20.45;;;10.00;95.70;;;;;;5130428;28;20035;-69
2022/01/01 05:18:02;;;;;;;95.63;21.27;;;10.10;95.60;;;;;;5130265;27;20133;-69
2022/01/01 05:20:27;;;;;;;80.00;21.02;;;10.10;95.70;;;;;;5111635;28;20126;-68
2022/01/01 05:22:53;;;;;;;80.38;21.95;;;10.20;95.60;;;;;;5112088;28;20043;-69
2022/01/01 05:25:19;;;;;;;76.82;21.73;;;10.20;95.60;;;;;;5129064;27;20449;-68
2022/01/01 05:27:44;;;;;;;75.13;20.85;;;10.20;95.80;;;;;;5111452;28;20054;-69
2022/01/01 05:30:10;;;;;;;68.03;20.90;;;10.30;95.80;;;;;;5129604;28;20403;-68
2022/01/01 05:32:36;;;;;;;70.22;18.85;;;10.30;95.80;;;;;;5112003;28;20399;-68
2022/01/01 05:35:03;;;;;;;75.80;18.45;;;10.30;95.80;;;;;;5129529;27;20154;-68
2022/01/01 05:37:29;;;;;;;64.70;17.55;;;10.40;95.70;;;;;;5130298;28;20047;-69
2022/01/01 05:39:54;;;;;;;54.38;16.77;;;10.40;95.70;;;;;;5129460;28;20092;-68
2022/01/01 05:42:20;;;;;;;65.60;17.25;;;10.50;95.70;;;;;;5130229;28;20044;-69
2022/01/01 05:44:46;;;;;;;54.97;16.98;;;10.50;95.70;;;;;;5129242;27;20196;-69
2022/01/01 05:47:11;;;;;;;47.22;14.73;;;10.50;95.70;;;;;;5127362;27;20499;-68
2022/01/01 05:49:37;;;;;;;50.92;13.98;;;10.60;95.70;;;;;;5107510;28;20071;-68
2022/01/01 05:52:03;;;;;;;49.35;14.10;;;10.70;95.60;;;;;;5112920;28;20055;-68
2022/01/01 05:54:28;;;;;;;56.88;14.63;;;10.60;95.60;;;;;;5114733;28;20038;-68
2022/01/01 05:56:54;;;;;;;47.42;14.38;;;10.60;95.50;;;;;;5129388;28;20404;-68
2022/01/01 05:59:20;;;;;;;43.88;13.38;;;10.70;95.50;;;;;;5114441;28;20039;-68
2022/01/01 06:01:45;;;;;;;45.38;13.10;;;10.70;95.50;;;;;;5128485;28;20134;-68
2022/01/01 06:04:11;;;;;;;47.08;12.60;;;10.70;95.40;;;;;;5123038;28;20035;-68
2022/01/01 06:06:37;;;;;;;44.92;12.65;;;10.60;95.30;;;;;;5111109;28;20039;-68
2022/01/01 06:09:02;;;;;;;49.80;13.82;;;10.70;95.40;;;;;;5125716;28;20085;-68
2022/01/01 06:11:28;;;;;;;49.42;14.52;;;10.60;95.30;;;;;;5117197;28;20396;-69
2022/01/01 06:13:53;;;;;;;41.75;13.18;;;10.60;95.30;;;;;;5100493;28;20043;-69
2022/01/01 06:16:19;;;;;;;44.88;14.43;;;10.60;95.20;;;;;;5128830;28;20039;-68
2022/01/01 06:18:45;;;;;;;46.08;14.32;;;10.60;95.20;;;;;;5124714;28;20035;-69
2022/01/01 06:21:10;;;;;;;36.38;13.95;;;10.60;95.10;;;;;;5097072;28;20036;-69
2022/01/01 06:23:37;;;;;;;43.97;14.02;;;10.60;95.10;;;;;;5122318;28;20126;-68
2022/01/01 06:26:07;;;;;;;43.03;14.27;;;10.50;95.10;;;;;;5113546;28;20115;-69
2022/01/01 06:28:33;;;;;;;40.58;14.30;;;10.60;95.10;;;;;;5123852;28;20042;-68
2022/01/01 06:30:58;;;;;;;53.67;15.95;;;10.60;95.10;;;;;;5129566;27;20035;-70
2022/01/01 06:33:24;;;;;;;49.25;15.45;;;10.60;95.10;;;;;;5127145;27;20499;-70
2022/01/01 06:35:50;;;;;;;48.90;16.33;;;10.60;95.10;;;;;;5115945;27;20062;-70
2022/01/01 06:38:16;;;;;;;45.30;16.00;;;10.90;95.30;;;;;;5119066;27;20122;-70
2022/01/01 06:40:43;;;;;;;47.03;15.40;;;10.90;95.00;;;;;;5133235;27;20046;-70
2022/01/01 06:43:15;;;;;;;48.63;16.63;;;10.90;94.90;;;;;;5132722;27;20550;-70
2022/01/01 06:45:40;;;;;;;44.17;14.95;;;10.90;95.00;;;;;;5124691;27;20136;-70
2022/01/01 06:48:06;;;;;;;58.17;16.27;;;10.80;94.90;;;;;;5121287;27;20499;-66
2022/01/01 06:50:32;;;;;;;48.15;17.65;;;10.90;94.80;;;;;;5122022;27;20372;-67
2022/01/01 06:52:58;;;;;;;52.88;18.80;;;10.90;94.90;;;;;;5127107;27;20058;-69
2022/01/01 06:55:24;;;;;;;55.22;17.60;;;11.10;95.80;;;;;;5131443;27;20047;-70
2022/01/01 06:57:49;;;;;;;47.15;17.98;;;11.00;94.80;;;;;;5132809;27;20558;-69
2022/01/01 07:00:16;;;;;;;56.53;19.73;;;10.90;94.60;;;;;;5132629;27;20043;-69
2022/01/01 07:02:43;;;;;;;43.83;18.02;;;11.00;94.60;;;;;;5114330;27;20059;-69
2022/01/01 07:05:10;;;;;;;58.50;19.70;;;10.90;94.60;;;;;;5114128;27;20062;-69
2022/01/01 07:07:36;;;;;;;57.10;19.30;;;10.90;94.60;;;;;;5131191;27;20047;-69
2022/01/01 07:10:04;;;;;;;47.22;20.02;;;10.90;94.50;;;;;;5096888;27;20099;-70
2022/01/01 07:12:29;;;;;;;50.35;21.50;;;10.80;94.50;;;;;;5129177;27;20122;-70
2022/01/01 07:14:55;;;;;;;51.28;22.00;;;10.90;94.50;;;;;;5111712;28;20119;-70
2022/01/01 07:17:20;;;;;;;50.75;22.58;;;10.80;94.40;;;;;;5112005;27;20047;-70
2022/01/01 07:19:46;;;;;;;55.13;23.75;;;10.80;94.50;;;;;;5132626;27;20534;-70
2022/01/01 07:22:12;;;;;;;49.53;21.65;;;10.80;94.50;;;;;;5110469;27;20063;-70
2022/01/01 07:24:37;;;;;;;50.38;23.83;;;10.80;94.50;;;;;;5111819;28;20039;-68
2022/01/01 07:27:03;;;;;;;57.15;21.60;;;10.80;94.50;;;;;;5112264;27;20415;-69
2022/01/01 07:29:29;;;;;;;49.30;21.70;;;10.80;94.40;;;;;;5132237;27;20089;-70
2022/01/01 07:31:54;;;;;;;51.60;22.83;;;10.80;94.40;;;;;;5126836;27;20499;-70
2022/01/01 07:34:21;;;;;;;47.35;20.67;;;10.90;94.50;;;;;;5127665;27;20042;-70
2022/01/01 07:36:47;;;;;;;41.42;20.63;;;11.00;94.60;;;;;;5110981;28;20946;-68
2022/01/01 07:39:13;;;;;;;45.75;20.88;;;11.20;94.70;;;;;;5118721;27;20032;-69
2022/01/01 07:41:39;;;;;;;38.38;20.10;;;11.20;94.40;;;;;;5112307;27;20043;-69
2022/01/01 07:44:05;;;;;;;53.33;19.08;;;11.20;94.30;;;;;;5128112;27;20042;-69
2022/01/01 07:46:31;;;;;;;59.65;24.75;;;11.10;94.20;;;;;;5131309;27;20078;-69
2022/01/01 07:48:57;;;;;;;44.20;20.50;;;11.10;94.10;;;;;;5130241;27;20074;-69
2022/01/01 07:51:22;;;;;;;48.78;20.60;;;11.10;94.20;;;;;;5110783;28;20054;-69
2022/01/01 07:53:48;;;;;;;46.60;23.02;;;11.10;94.20;;;;;;5125563;27;20039;-69
2022/01/01 07:56:13;;;;;;;57.15;22.02;;;11.10;94.20;;;;;;5119983;27;20491;-69
2022/01/01 07:58:39;;;;;;;50.45;23.30;;;11.00;94.20;;;;;;5131681;27;20090;-69
2022/01/01 08:01:04;;;;;;;42.85;20.92;;;11.00;94.20;;;;;;5112319;27;20051;-69
2022/01/01 08:03:30;;;;;;;48.67;21.75;;;10.90;94.20;;;;;;5130038;27;20050;-70
2022/01/01 08:05:56;;;;;;;47.75;22.45;;;11.00;94.30;;;;;;5078782;28;20088;-70
2022/01/01 08:08:22;;;;;;;41.75;20.88;;;11.10;94.30;;;;;;5110808;27;20036;-69
2022/01/01 08:10:48;;;;;;;41.65;21.08;;;11.10;94.20;;;;;;5095446;27;20459;-69
2022/01/01 08:13:22;;;;;;;41.60;20.95;;;11.10;94.20;;;;;;5131325;27;20035;-71
2022/01/01 08:15:48;;;;;;;52.58;22.75;;;11.10;94.20;;;;;;5129762;27;20082;-70
2022/01/01 08:18:14;;;;;;;40.05;19.88;;;11.10;94.30;;;;;;5120802;27;20500;-71
2022/01/01 08:20:40;;;;;;;43.35;21.83;;;11.20;94.40;;;;;;5110620;28;20082;-71
2022/01/01 08:23:06;;;;;;;47.53;22.23;;;11.20;94.20;;;;;;5110684;28;20399;-71
2022/01/01 08:25:31;;;;;;;45.30;21.08;;;11.20;94.10;;;;;;5110787;28;20434;-71
2022/01/01 08:27:57;;;;;;;42.65;21.85;;;11.10;94.00;;;;;;5110038;28;20103;-71
2022/01/01 08:30:23;;;;;;;56.17;21.67;;;11.10;94.00;;;;;;5092451;28;20742;-70
2022/01/01 08:32:48;;;;;;;39.67;19.67;;;11.10;94.00;;;;;;5110486;28;20048;-71
2022/01/01 08:35:14;;;;;;;39.85;21.55;;;11.10;93.80;;;;;;5110465;28;20040;-71
2022/01/01 08:37:41;;;;;;;44.47;19.23;;;11.00;94.00;;;;;;5108830;28;20044;-71
2022/01/01 08:40:07;;;;;;;47.60;20.42;;;11.00;94.00;;;;;;5091800;28;20050;-70
2022/01/01 08:42:33;;;;;;;37.05;19.77;;;11.00;94.00;;;;;;5110707;28;20047;-71
2022/01/01 08:44:59;;;;;;;48.15;20.15;;;11.00;94.00;;;;;;5092207;28;20047;-71
2022/01/01 08:47:26;;;;;;;42.40;19.95;;;11.00;94.10;;;;;;5110379;28;20341;-71
2022/01/01 08:49:55;;;;;;;44.55;17.52;;;11.10;94.10;;;;;;5110076;28;20491;-71
2022/01/01 08:52:22;;;;;;;40.70;17.55;;;11.10;94.10;;;;;;5075103;28;20044;-71
2022/01/01 08:54:47;;;;;;;48.53;20.85;;;11.10;94.10;;;;;;5109807;28;20047;-71
2022/01/01 08:57:13;;;;;;;37.15;18.30;;;11.10;94.20;;;;;;5109782;28;20047;-71
2022/01/01 08:59:39;;;;;;;43.30;19.50;;;11.10;94.20;;;;;;5110371;28;20096;-70
2022/01/01 09:02:04;;;;;;;41.75;18.35;;;11.10;94.10;;;;;;5109963;28;20051;-70
2022/01/01 09:04:30;;;;;;;34.83;17.17;;;11.10;94.20;;;;;;5110053;28;20130;-70
2022/01/01 09:06:56;;;;;;;36.03;16.52;;;11.10;94.10;;;;;;5091388;28;20054;-70
2022/01/01 09:09:21;;;;;;;35.13;17.73;;;11.10;94.10;;;;;;5108992;28;20134;-71
2022/01/01 09:11:47;;;;;;;33.88;16.60;;;11.20;94.00;;;;;;5109456;28;20130;-70
2022/01/01 09:14:13;;;;;;;38.63;16.15;;;11.20;94.00;;;;;;5109118;28;20074;-71
2022/01/01 09:16:38;;;;;;;30.38;15.18;;;11.20;93.90;;;;;;5109251;28;20050;-71
2022/01/01 09:19:05;;;;;;;35.75;16.90;;;11.20;93.80;;;;;;5108939;28;20122;-70
2022/01/01 09:21:31;;;;;;;30.25;13.40;;;11.20;93.80;;;;;;5109393;28;20058;-70
2022/01/01 09:23:57;;;;;;;27.15;14.13;;;11.20;93.80;;;;;;5109002;28;20047;-71
2022/01/01 09:26:23;;;;;;;32.60;14.95;;;11.20;93.90;;;;;;5109052;28;20499;-71
2022/01/01 09:28:49;;;;;;;25.33;12.48;;;11.20;93.80;;;;;;5108792;28;20078;-71
2022/01/01 09:31:15;;;;;;;29.90;12.75;;;11.20;93.80;;;;;;5109047;28;20628;-71
2022/01/01 09:33:41;;;;;;;29.83;11.60;;;11.30;93.80;;;;;;5109174;28;20072;-70
2022/01/01 09:36:09;;;;;;;26.38;10.82;;;11.20;93.70;;;;;;5074020;28;20040;-71
2022/01/01 09:38:35;;;;;;;21.65;10.15;;;11.30;93.70;;;;;;5109101;28;20050;-71
2022/01/01 09:41:01;;;;;;;30.23;10.52;;;11.30;93.60;;;;;;5108565;28;20043;-71
2022/01/01 09:43:29;;;;;;;25.45;9.00;;;11.30;93.60;;;;;;5118258;28;20039;-69
2022/01/01 09:45:56;;;;;;;26.55;9.00;;;11.40;93.60;;;;;;5128632;27;20092;-70
2022/01/01 09:48:23;;;;;;;24.27;10.43;;;11.40;93.60;;;;;;5110636;28;20053;-70
2022/01/01 09:50:54;;;;;;;19.80;8.90;;;11.50;93.50;;;;;;5129475;28;20036;-70
2022/01/01 09:53:20;;;;;;;23.63;8.48;;;11.50;93.40;;;;;;5129930;28;20047;-70
2022/01/01 09:55:47;;;;;;;22.33;8.25;;;11.60;93.50;;;;;;5129250;28;20040;-70
2022/01/01 09:58:13;;;;;;;17.35;8.05;;;11.60;93.40;;;;;;5129388;27;20053;-70
2022/01/01 10:00:38;;;;;;;22.95;8.32;;;11.60;93.40;;;;;;5110952;28;20047;-70
2022/01/01 10:03:04;;;;;;;18.77;8.25;;;11.60;93.30;;;;;;5128959;28;20047;-71
2022/01/01 10:05:30;;;;;;;23.48;8.35;;;11.60;93.20;;;;;;5131453;27;20043;-70
2022/01/01 10:08:00;;;;;;;21.73;9.55;;;11.60;93.20;;;;;;5114899;27;20098;-69
2022/01/01 10:10:26;;;;;;;23.58;8.55;;;11.70;93.10;;;;;;5124217;27;20040;-70
2022/01/01 10:12:52;;;;;;;15.77;9.15;;;11.70;93.10;;;;;;5122255;27;20405;-70
2022/01/01 10:15:19;;;;;;;20.75;9.65;;;11.70;93.10;;;;;;5133229;27;20045;-70
2022/01/01 10:17:46;;;;;;;21.65;8.80;;;11.80;93.00;;;;;;5130691;27;20039;-69
2022/01/01 10:20:12;;;;;;;14.77;8.80;;;11.80;93.00;;;;;;5132311;27;20043;-70
2022/01/01 10:22:39;;;;;;;16.05;7.72;;;11.80;92.90;;;;;;5133292;27;20050;-69
2022/01/01 10:28:02;;;;;;;16.80;7.13;;;11.90;92.80;;;;;;5126118;27;20047;-69
2022/01/01 10:30:43;;;;;;;14.32;7.40;;;11.90;92.70;;;;;;5105932;28;20163;-68
2022/01/01 10:33:17;;;;;;;21.52;7.32;;;11.90;92.70;;;;;;5127229;27;20043;-69
2022/01/01 10:35:50;;;;;;;15.18;7.05;;;11.90;92.70;;;;;;5133024;27;20051;-69
2022/01/01 10:38:27;;;;;;;21.05;7.70;;;12.00;92.70;;;;;;5132240;27;20039;-69
2022/01/01 10:41:09;;;;;;;19.60;8.60;;;12.00;92.60;;;;;;5114728;27;20368;-69
2022/01/01 10:43:43;;;;;;;24.27;8.57;;;12.10;92.60;;;;;;5132360;27;20043;-70
2022/01/01 10:46:17;;;;;;;18.40;8.02;;;12.10;92.60;;;;;;5132905;27;20208;-69
2022/01/01 10:51:16;;;;;;;;;;;12.10;92.60;;;;;;5133257;27;20182;-69
2022/01/01 10:53:42;;;;;;;19.63;7.40;;;12.10;92.30;;;;;;5131595;27;20014;-69
2022/01/01 10:56:19;;;;;;;17.95;7.40;;;12.10;92.60;;;;;;5132572;27;20172;-69
2022/01/01 10:58:45;;;;;;;15.10;7.82;;;12.10;92.60;;;;;;5132689;27;20031;-69
2022/01/01 11:01:13;;;;;;;18.40;7.68;;;12.10;92.60;;;;;;5113890;27;20427;-69
2022/01/01 11:03:41;;;;;;;18.67;8.38;;;12.20;92.60;;;;;;5131795;27;20094;-69
2022/01/01 11:06:17;;;;;;;18.63;8.35;;;12.20;92.60;;;;;;5129476;27;20578;-69
2022/01/01 11:08:45;;;;;;;18.80;9.30;;;12.20;92.60;;;;;;5131958;27;20095;-70
2022/01/01 11:11:13;;;;;;;19.58;8.70;;;12.20;92.60;;;;;;5096046;27;20078;-70
2022/01/01 11:13:45;;;;;;;15.20;7.97;;;12.20;92.50;;;;;;5096682;27;20047;-70
2022/01/01 11:16:14;;;;;;;15.60;8.05;;;12.30;92.60;;;;;;5127985;27;20114;-69
2022/01/01 11:18:39;;;;;;;19.15;7.75;;;12.30;92.50;;;;;;5111524;27;20053;-69
2022/01/01 11:21:07;;;;;;;20.42;9.30;;;12.40;92.40;;;;;;5113464;27;20043;-70
2022/01/01 11:23:34;;;;;;;15.48;8.05;;;12.40;92.30;;;;;;5113776;27;20047;-70
2022/01/01 11:26:00;;;;;;;22.92;8.00;;;12.40;92.30;;;;;;5112494;27;20039;-70
2022/01/01 11:28:26;;;;;;;18.42;9.30;;;12.40;92.20;;;;;;5106815;28;20043;-70
2022/01/01 11:30:57;;;;;;;20.35;9.18;;;12.40;92.20;;;;;;5100742;27;20039;-70
2022/01/01 11:33:42;;;;;;;18.38;8.93;;;12.40;92.20;;;;;;5088271;27;20050;-70
2022/01/01 11:36:21;;;;;;;17.02;7.72;;;12.50;92.00;;;;;;5099327;27;20126;-70
2022/01/01 11:38:49;;;;;;;23.38;8.18;;;12.40;92.00;;;;;;5115619;27;20507;-70
2022/01/01 11:41:19;;;;;;;17.58;8.25;;;12.40;92.10;;;;;;5104184;27;20503;-70
2022/01/01 11:43:49;;;;;;;17.55;8.35;;;12.40;92.00;;;;;;5127870;27;20135;-70
2022/01/01 11:46:33;;;;;;;17.42;7.93;;;12.40;92.00;;;;;;5093008;28;20043;-70
2022/01/01 11:49:03;;;;;;;18.50;7.32;;;12.50;91.90;;;;;;5130619;27;20047;-69
2022/01/01 11:51:35;;;;;;;24.15;8.45;;;12.50;92.10;;;;;;5111217;28;20051;-70
2022/01/01 11:54:21;;;;;;;20.63;8.27;;;12.50;92.00;;;;;;5112238;27;20066;-70
2022/01/01 11:56:50;;;;;;;19.42;8.15;;;12.50;91.90;;;;;;5076165;28;20563;-70
2022/01/01 11:59:26;;;;;;;18.15;7.72;;;12.40;91.80;;;;;;5128485;27;20043;-70
2022/01/01 12:01:55;;;;;;;17.63;7.63;;;12.50;91.80;;;;;;5131837;27;20082;-70
2022/01/01 12:04:41;;;;;;;16.48;6.90;;;12.50;91.60;;;;;;5116797;27;20500;-70
2022/01/01 12:07:10;;;;;;;19.05;8.10;;;12.50;91.70;;;;;;5110927;28;20297;-70
2022/01/01 12:09:57;;;;;;;14.40;6.65;;;12.50;91.70;;;;;;5111292;28;20081;-70
2022/01/01 12:12:41;;;;;;;17.30;7.78;;;12.60;91.50;;;;;;5110357;28;20108;-70
2022/01/01 12:15:10;;;;;;;17.10;7.07;;;12.60;91.50;;;;;;5093216;28;20043;-70
2022/01/01 12:18:05;;;;;;;23.30;7.38;;;12.50;91.60;;;;;;5111070;28;20130;-70
2022/01/01 12:20:45;;;;;;;18.88;9.20;;;12.60;91.30;;;;;;5084934;28;20063;-69
2022/01/01 12:23:16;;;;;;;19.45;7.72;;;12.50;91.50;;;;;;5092827;28;20047;-71
2022/01/01 12:25:44;;;;;;;17.83;7.72;;;12.50;91.40;;;;;;5111716;27;20071;-71
2022/01/01 12:28:18;;;;;;;14.02;6.93;;;12.50;91.40;;;;;;5099180;28;20522;-71
2022/01/01 12:30:46;;;;;;;17.52;7.68;;;12.60;91.50;;;;;;5092614;28;20043;-72
2022/01/01 12:33:40;;;;;;;15.07;7.43;;;12.50;91.30;;;;;;5092380;28;20058;-71
2022/01/01 12:36:11;;;;;;;15.80;7.25;;;12.60;91.30;;;;;;5109990;28;20100;-72
2022/01/01 12:38:40;;;;;;;15.48;8.27;;;12.60;91.20;;;;;;5110710;28;20051;-72
2022/01/01 12:41:23;;;;;;;13.75;7.97;;;12.60;91.20;;;;;;5092510;28;20047;-71
2022/01/01 12:44:00;;;;;;;12.77;8.18;;;12.70;91.20;;;;;;5111688;28;20071;-71
2022/01/01 12:46:32;;;;;;;13.50;7.95;;;12.80;91.10;;;;;;5110339;28;20080;-71